Nuuk City

KL  EN  DA
ASIAQ
Weather Now GREENLAND SURVEY
Updated [WGT/WGST] Temperature [°C] Wind [m/s] Air pressure [hPa] Relative humidity [%] Precipitation [mm]
Present Wind chill Speed Max
21.01 20:00-10,3-15,02,3 ⇐3,5986880,0
21.01 19:00-9,8-12,91,5 ⇐2,7986840,1
21.01 18:00-10,1-13,41,6 ⇐2,3986870,2
21.01 17:00-10,3-14,11,8 ⇐2,3985800,0
21.01 16:00-10,1-13,41,6 ⇙2,1987870,0
21.01 15:00-10,10,00,4 ⇘1,8989900,1
21.01 14:00-9,8-13,92,0 ⇒3,9989890,4
21.01 13:00-9,9-14,32,2 ⇙2,7988870,1
21.01 12:00-9,7-14,52,5 ⇒3,9987870,3
21.01 11:00-9,80,01,1 ⇒5,2985900,4
21.01 10:00-9,8-15,33,0 ⇒4,6983850,1
21.01 09:00-9,4-13,62,1 ⇒6,2982620,0
21.01 08:00-9,8-16,94,7 ⇒8,2981860,0
21.01 07:00-9,3-15,94,3 ⇒10,0982610,0
21.01 06:00-8,8-16,55,8 ⇑9,2981570,0
21.01 05:00-9,0-16,65,6 ⇗8,4981580,0
21.01 04:00-9,0-13,72,5 ⇗7,4980640,0
21.01 03:00-9,8-16,74,4 ⇒7,9978850,0
21.01 02:00-9,1-15,64,1 ⇒7,3978620,0
21.01 01:00-9,0-16,14,9 ⇒8,0977660,0
21.01 00:00-9,7-13,51,9 ⇒6,6975870,5
20.01 23:00-9,4-15,53,7 ⇒6,7975780,0
20.01 22:00-9,4-16,85,2 ⇗7,5974780,0
20.01 21:00-9,4-15,84,0 ⇒8,8973750,0
20.01 20:00-9,1-16,85,6 ⇒8,8972720,0
Position: (64.183333333,-51.73083333)

[Back]